sensor_id;sensor_type;location;lat;lon;timestamp;P1;P2;P0
80639;PMS5003;69992;60.170;24.692;2023-06-26T00:01:25;11;11;
80639;PMS5003;69992;60.170;24.692;2023-06-26T00:03:50;10;10;
80639;PMS5003;69992;60.170;24.692;2023-06-26T00:06:15;12;12;
80639;PMS5003;69992;60.170;24.692;2023-06-26T00:08:41;12;12;
80639;PMS5003;69992;60.170;24.692;2023-06-26T00:11:07;13;13;
80639;PMS5003;69992;60.170;24.692;2023-06-26T00:13:33;13;13;
80639;PMS5003;69992;60.170;24.692;2023-06-26T00:15:58;12;12;
80639;PMS5003;69992;60.170;24.692;2023-06-26T00:18:24;13;13;
80639;PMS5003;69992;60.170;24.692;2023-06-26T00:20:49;10;10;
80639;PMS5003;69992;60.170;24.692;2023-06-26T00:23:16;11;10;
80639;PMS5003;69992;60.170;24.692;2023-06-26T00:25:41;12;12;
80639;PMS5003;69992;60.170;24.692;2023-06-26T00:28:06;15;12;
80639;PMS5003;69992;60.170;24.692;2023-06-26T00:30:31;13;13;
80639;PMS5003;69992;60.170;24.692;2023-06-26T00:32:57;11;11;
80639;PMS5003;69992;60.170;24.692;2023-06-26T00:35:23;13;13;
80639;PMS5003;69992;60.170;24.692;2023-06-26T00:37:48;13;11;
80639;PMS5003;69992;60.170;24.692;2023-06-26T00:40:14;13;13;
80639;PMS5003;69992;60.170;24.692;2023-06-26T00:42:39;14;13;
80639;PMS5003;69992;60.170;24.692;2023-06-26T00:45:05;14;14;
80639;PMS5003;69992;60.170;24.692;2023-06-26T00:47:31;11;11;
80639;PMS5003;69992;60.170;24.692;2023-06-26T00:49:56;13;11;
80639;PMS5003;69992;60.170;24.692;2023-06-26T00:52:22;11;11;
80639;PMS5003;69992;60.170;24.692;2023-06-26T00:54:47;12;12;
80639;PMS5003;69992;60.170;24.692;2023-06-26T00:57:13;13;12;
80639;PMS5003;69992;60.170;24.692;2023-06-26T00:59:38;15;14;
80639;PMS5003;69992;60.170;24.692;2023-06-26T01:02:04;12;12;
80639;PMS5003;69992;60.170;24.692;2023-06-26T01:04:31;14;14;
80639;PMS5003;69992;60.170;24.692;2023-06-26T01:06:55;14;14;
80639;PMS5003;69992;60.170;24.692;2023-06-26T01:09:21;13;13;
80639;PMS5003;69992;60.170;24.692;2023-06-26T01:11:47;16;16;
80639;PMS5003;69992;60.170;24.692;2023-06-26T01:14:12;10;10;
80639;PMS5003;69992;60.170;24.692;2023-06-26T01:16:38;12;12;
80639;PMS5003;69992;60.170;24.692;2023-06-26T01:19:04;14;14;
80639;PMS5003;69992;60.170;24.692;2023-06-26T01:21:29;13;13;
80639;PMS5003;69992;60.170;24.692;2023-06-26T01:23:58;14;14;
80639;PMS5003;69992;60.170;24.692;2023-06-26T01:26:20;16;16;
80639;PMS5003;69992;60.170;24.692;2023-06-26T01:28:46;16;16;
80639;PMS5003;69992;60.170;24.692;2023-06-26T01:31:11;15;15;
80639;PMS5003;69992;60.170;24.692;2023-06-26T01:33:37;12;12;
80639;PMS5003;69992;60.170;24.692;2023-06-26T01:36:02;12;11;
80639;PMS5003;69992;60.170;24.692;2023-06-26T01:38:28;13;13;
80639;PMS5003;69992;60.170;24.692;2023-06-26T01:40:53;13;13;
80639;PMS5003;69992;60.170;24.692;2023-06-26T01:43:20;12;12;
80639;PMS5003;69992;60.170;24.692;2023-06-26T01:45:45;14;14;
80639;PMS5003;69992;60.170;24.692;2023-06-26T01:48:10;11;11;
80639;PMS5003;69992;60.170;24.692;2023-06-26T01:50:36;11;11;
80639;PMS5003;69992;60.170;24.692;2023-06-26T01:53:02;11;11;
80639;PMS5003;69992;60.170;24.692;2023-06-26T01:55:28;13;13;
80639;PMS5003;69992;60.170;24.692;2023-06-26T01:57:53;14;14;
80639;PMS5003;69992;60.170;24.692;2023-06-26T02:00:18;13;13;
80639;PMS5003;69992;60.170;24.692;2023-06-26T02:02:44;13;13;
80639;PMS5003;69992;60.170;24.692;2023-06-26T02:05:09;13;13;
80639;PMS5003;69992;60.170;24.692;2023-06-26T02:07:35;12;12;
80639;PMS5003;69992;60.170;24.692;2023-06-26T02:10:00;12;12;
80639;PMS5003;69992;60.170;24.692;2023-06-26T02:12:25;13;13;
80639;PMS5003;69992;60.170;24.692;2023-06-26T02:14:51;19;14;
80639;PMS5003;69992;60.170;24.692;2023-06-26T02:17:16;13;12;
80639;PMS5003;69992;60.170;24.692;2023-06-26T02:19:42;14;13;
80639;PMS5003;69992;60.170;24.692;2023-06-26T02:22:07;15;15;
80639;PMS5003;69992;60.170;24.692;2023-06-26T02:24:33;16;16;
80639;PMS5003;69992;60.170;24.692;2023-06-26T02:26:59;13;13;
80639;PMS5003;69992;60.170;24.692;2023-06-26T02:29:24;15;14;
80639;PMS5003;69992;60.170;24.692;2023-06-26T02:31:49;14;14;
80639;PMS5003;69992;60.170;24.692;2023-06-26T02:34:15;16;15;
80639;PMS5003;69992;60.170;24.692;2023-06-26T02:36:40;14;14;
80639;PMS5003;69992;60.170;24.692;2023-06-26T02:39:06;16;13;
80639;PMS5003;69992;60.170;24.692;2023-06-26T02:41:32;13;13;
80639;PMS5003;69992;60.170;24.692;2023-06-26T02:43:57;17;17;
80639;PMS5003;69992;60.170;24.692;2023-06-26T02:46:23;17;17;
80639;PMS5003;69992;60.170;24.692;2023-06-26T02:48:48;12;12;
80639;PMS5003;69992;60.170;24.692;2023-06-26T02:51:14;13;13;
80639;PMS5003;69992;60.170;24.692;2023-06-26T02:53:40;18;17;
80639;PMS5003;69992;60.170;24.692;2023-06-26T02:56:05;18;17;
80639;PMS5003;69992;60.170;24.692;2023-06-26T02:58:31;17;17;
80639;PMS5003;69992;60.170;24.692;2023-06-26T03:00:56;17;17;
80639;PMS5003;69992;60.170;24.692;2023-06-26T03:03:21;17;16;
80639;PMS5003;69992;60.170;24.692;2023-06-26T03:05:47;19;19;
80639;PMS5003;69992;60.170;24.692;2023-06-26T03:08:12;17;17;
80639;PMS5003;69992;60.170;24.692;2023-06-26T03:10:38;16;16;
80639;PMS5003;69992;60.170;24.692;2023-06-26T03:13:03;16;16;
80639;PMS5003;69992;60.170;24.692;2023-06-26T03:15:29;17;17;
80639;PMS5003;69992;60.170;24.692;2023-06-26T03:17:54;14;14;
80639;PMS5003;69992;60.170;24.692;2023-06-26T03:20:20;16;16;
80639;PMS5003;69992;60.170;24.692;2023-06-26T03:22:45;16;16;
80639;PMS5003;69992;60.170;24.692;2023-06-26T03:25:10;18;18;
80639;PMS5003;69992;60.170;24.692;2023-06-26T03:27:36;15;15;
80639;PMS5003;69992;60.170;24.692;2023-06-26T03:30:02;19;19;
80639;PMS5003;69992;60.170;24.692;2023-06-26T03:32:27;22;19;
80639;PMS5003;69992;60.170;24.692;2023-06-26T03:34:52;15;15;
80639;PMS5003;69992;60.170;24.692;2023-06-26T03:37:18;17;17;
80639;PMS5003;69992;60.170;24.692;2023-06-26T03:39:43;24;23;
80639;PMS5003;69992;60.170;24.692;2023-06-26T03:42:08;32;32;
80639;PMS5003;69992;60.170;24.692;2023-06-26T03:44:34;35;33;
80639;PMS5003;69992;60.170;24.692;2023-06-26T03:47:00;26;26;
80639;PMS5003;69992;60.170;24.692;2023-06-26T03:49:25;19;19;
80639;PMS5003;69992;60.170;24.692;2023-06-26T03:51:50;24;21;
80639;PMS5003;69992;60.170;24.692;2023-06-26T03:54:16;15;15;
80639;PMS5003;69992;60.170;24.692;2023-06-26T03:56:42;20;16;
80639;PMS5003;69992;60.170;24.692;2023-06-26T03:59:07;19;16;
80639;PMS5003;69992;60.170;24.692;2023-06-26T04:01:33;18;18;
80639;PMS5003;69992;60.170;24.692;2023-06-26T04:03:59;21;21;
80639;PMS5003;69992;60.170;24.692;2023-06-26T04:06:24;18;18;
80639;PMS5003;69992;60.170;24.692;2023-06-26T04:08:50;20;19;
80639;PMS5003;69992;60.170;24.692;2023-06-26T04:11:15;16;16;
80639;PMS5003;69992;60.170;24.692;2023-06-26T04:13:41;18;18;
80639;PMS5003;69992;60.170;24.692;2023-06-26T04:16:07;15;15;
80639;PMS5003;69992;60.170;24.692;2023-06-26T04:18:33;19;19;
80639;PMS5003;69992;60.170;24.692;2023-06-26T04:21:04;17;17;
80639;PMS5003;69992;60.170;24.692;2023-06-26T04:23:24;17;17;
80639;PMS5003;69992;60.170;24.692;2023-06-26T04:25:49;16;16;
80639;PMS5003;69992;60.170;24.692;2023-06-26T04:28:15;20;18;
80639;PMS5003;69992;60.170;24.692;2023-06-26T04:30:41;19;17;
80639;PMS5003;69992;60.170;24.692;2023-06-26T04:33:06;21;21;
80639;PMS5003;69992;60.170;24.692;2023-06-26T04:35:32;16;16;
80639;PMS5003;69992;60.170;24.692;2023-06-26T04:37:57;15;15;
80639;PMS5003;69992;60.170;24.692;2023-06-26T04:40:22;16;16;
80639;PMS5003;69992;60.170;24.692;2023-06-26T04:42:48;17;17;
80639;PMS5003;69992;60.170;24.692;2023-06-26T04:45:13;18;18;
80639;PMS5003;69992;60.170;24.692;2023-06-26T04:47:38;18;18;
80639;PMS5003;69992;60.170;24.692;2023-06-26T04:50:04;14;14;
80639;PMS5003;69992;60.170;24.692;2023-06-26T04:52:30;16;16;
80639;PMS5003;69992;60.170;24.692;2023-06-26T04:54:55;23;19;
80639;PMS5003;69992;60.170;24.692;2023-06-26T04:57:20;16;16;
80639;PMS5003;69992;60.170;24.692;2023-06-26T04:59:46;17;17;
80639;PMS5003;69992;60.170;24.692;2023-06-26T05:02:11;15;15;
80639;PMS5003;69992;60.170;24.692;2023-06-26T05:04:37;16;16;
80639;PMS5003;69992;60.170;24.692;2023-06-26T05:07:03;18;18;
80639;PMS5003;69992;60.170;24.692;2023-06-26T05:09:28;17;16;
80639;PMS5003;69992;60.170;24.692;2023-06-26T05:11:53;12;12;
80639;PMS5003;69992;60.170;24.692;2023-06-26T05:14:18;16;16;
80639;PMS5003;69992;60.170;24.692;2023-06-26T05:16:44;15;15;
80639;PMS5003;69992;60.170;24.692;2023-06-26T05:19:10;15;15;
80639;PMS5003;69992;60.170;24.692;2023-06-26T05:21:35;14;14;
80639;PMS5003;69992;60.170;24.692;2023-06-26T05:24:01;16;16;
80639;PMS5003;69992;60.170;24.692;2023-06-26T05:26:26;17;17;
80639;PMS5003;69992;60.170;24.692;2023-06-26T05:28:52;15;15;
80639;PMS5003;69992;60.170;24.692;2023-06-26T05:31:18;13;13;
80639;PMS5003;69992;60.170;24.692;2023-06-26T05:33:43;15;15;
80639;PMS5003;69992;60.170;24.692;2023-06-26T05:36:09;15;15;
80639;PMS5003;69992;60.170;24.692;2023-06-26T05:38:34;14;14;
80639;PMS5003;69992;60.170;24.692;2023-06-26T05:41:00;15;15;
80639;PMS5003;69992;60.170;24.692;2023-06-26T05:43:25;15;14;
80639;PMS5003;69992;60.170;24.692;2023-06-26T05:45:51;13;13;
80639;PMS5003;69992;60.170;24.692;2023-06-26T05:48:16;14;14;
80639;PMS5003;69992;60.170;24.692;2023-06-26T05:50:42;14;13;
80639;PMS5003;69992;60.170;24.692;2023-06-26T05:53:08;16;15;
80639;PMS5003;69992;60.170;24.692;2023-06-26T05:55:33;16;16;
80639;PMS5003;69992;60.170;24.692;2023-06-26T05:57:58;17;15;
80639;PMS5003;69992;60.170;24.692;2023-06-26T06:00:24;15;15;
80639;PMS5003;69992;60.170;24.692;2023-06-26T06:02:49;16;16;
80639;PMS5003;69992;60.170;24.692;2023-06-26T06:05:14;15;14;
80639;PMS5003;69992;60.170;24.692;2023-06-26T06:07:40;18;17;
80639;PMS5003;69992;60.170;24.692;2023-06-26T06:10:06;13;13;
80639;PMS5003;69992;60.170;24.692;2023-06-26T06:12:31;16;15;
80639;PMS5003;69992;60.170;24.692;2023-06-26T06:14:56;15;15;
80639;PMS5003;69992;60.170;24.692;2023-06-26T06:17:22;15;15;
80639;PMS5003;69992;60.170;24.692;2023-06-26T06:19:48;15;15;
80639;PMS5003;69992;60.170;24.692;2023-06-26T06:22:13;14;13;
80639;PMS5003;69992;60.170;24.692;2023-06-26T06:24:39;15;15;
80639;PMS5003;69992;60.170;24.692;2023-06-26T06:27:04;16;16;
80639;PMS5003;69992;60.170;24.692;2023-06-26T06:29:30;16;16;
80639;PMS5003;69992;60.170;24.692;2023-06-26T06:31:56;16;16;
80639;PMS5003;69992;60.170;24.692;2023-06-26T06:34:21;16;16;
80639;PMS5003;69992;60.170;24.692;2023-06-26T06:36:47;14;14;
80639;PMS5003;69992;60.170;24.692;2023-06-26T06:39:12;16;16;
80639;PMS5003;69992;60.170;24.692;2023-06-26T06:41:38;16;16;
80639;PMS5003;69992;60.170;24.692;2023-06-26T06:44:03;15;15;
80639;PMS5003;69992;60.170;24.692;2023-06-26T06:46:34;15;15;
80639;PMS5003;69992;60.170;24.692;2023-06-26T06:48:54;16;16;
80639;PMS5003;69992;60.170;24.692;2023-06-26T06:51:19;16;16;
80639;PMS5003;69992;60.170;24.692;2023-06-26T06:53:45;14;14;
80639;PMS5003;69992;60.170;24.692;2023-06-26T06:56:10;12;12;
80639;PMS5003;69992;60.170;24.692;2023-06-26T06:58:36;14;14;
80639;PMS5003;69992;60.170;24.692;2023-06-26T07:01:02;17;17;
80639;PMS5003;69992;60.170;24.692;2023-06-26T07:03:27;13;13;
80639;PMS5003;69992;60.170;24.692;2023-06-26T07:05:52;16;16;
80639;PMS5003;69992;60.170;24.692;2023-06-26T07:08:18;17;17;
80639;PMS5003;69992;60.170;24.692;2023-06-26T07:10:43;14;14;
80639;PMS5003;69992;60.170;24.692;2023-06-26T07:13:09;18;18;
80639;PMS5003;69992;60.170;24.692;2023-06-26T07:15:34;16;16;
80639;PMS5003;69992;60.170;24.692;2023-06-26T07:18:00;15;15;
80639;PMS5003;69992;60.170;24.692;2023-06-26T07:20:25;17;17;
80639;PMS5003;69992;60.170;24.692;2023-06-26T07:22:52;17;17;
80639;PMS5003;69992;60.170;24.692;2023-06-26T07:25:16;15;15;
80639;PMS5003;69992;60.170;24.692;2023-06-26T07:27:41;14;14;
80639;PMS5003;69992;60.170;24.692;2023-06-26T07:30:07;15;14;
80639;PMS5003;69992;60.170;24.692;2023-06-26T07:32:32;19;19;
80639;PMS5003;69992;60.170;24.692;2023-06-26T07:34:58;16;16;
80639;PMS5003;69992;60.170;24.692;2023-06-26T07:37:23;18;17;
80639;PMS5003;69992;60.170;24.692;2023-06-26T07:39:49;15;15;
80639;PMS5003;69992;60.170;24.692;2023-06-26T07:42:14;21;19;
80639;PMS5003;69992;60.170;24.692;2023-06-26T07:44:41;20;17;
80639;PMS5003;69992;60.170;24.692;2023-06-26T07:47:06;18;18;
80639;PMS5003;69992;60.170;24.692;2023-06-26T07:49:31;17;17;
80639;PMS5003;69992;60.170;24.692;2023-06-26T07:51:56;17;16;
80639;PMS5003;69992;60.170;24.692;2023-06-26T07:54:22;16;15;
80639;PMS5003;69992;60.170;24.692;2023-06-26T07:56:53;15;15;
80639;PMS5003;69992;60.170;24.692;2023-06-26T07:59:13;16;15;
80639;PMS5003;69992;60.170;24.692;2023-06-26T08:01:38;16;16;
80639;PMS5003;69992;60.170;24.692;2023-06-26T08:04:04;16;15;
80639;PMS5003;69992;60.170;24.692;2023-06-26T08:06:30;17;15;
80639;PMS5003;69992;60.170;24.692;2023-06-26T08:08:54;19;18;
80639;PMS5003;69992;60.170;24.692;2023-06-26T08:11:20;19;19;
80639;PMS5003;69992;60.170;24.692;2023-06-26T08:13:45;16;16;
80639;PMS5003;69992;60.170;24.692;2023-06-26T08:16:11;16;16;
80639;PMS5003;69992;60.170;24.692;2023-06-26T08:18:36;15;15;
80639;PMS5003;69992;60.170;24.692;2023-06-26T08:21:01;18;17;
80639;PMS5003;69992;60.170;24.692;2023-06-26T08:23:26;21;16;
80639;PMS5003;69992;60.170;24.692;2023-06-26T08:25:52;16;16;
80639;PMS5003;69992;60.170;24.692;2023-06-26T08:28:17;12;12;
80639;PMS5003;69992;60.170;24.692;2023-06-26T08:30:43;15;15;
80639;PMS5003;69992;60.170;24.692;2023-06-26T08:33:08;17;16;
80639;PMS5003;69992;60.170;24.692;2023-06-26T08:35:33;11;10;
80639;PMS5003;69992;60.170;24.692;2023-06-26T08:37:59;11;11;
80639;PMS5003;69992;60.170;24.692;2023-06-26T08:40:24;14;14;
80639;PMS5003;69992;60.170;24.692;2023-06-26T08:42:50;14;14;
80639;PMS5003;69992;60.170;24.692;2023-06-26T08:45:15;14;13;
80639;PMS5003;69992;60.170;24.692;2023-06-26T08:47:40;15;15;
80639;PMS5003;69992;60.170;24.692;2023-06-26T08:50:07;11;11;
80639;PMS5003;69992;60.170;24.692;2023-06-26T08:52:33;13;13;
80639;PMS5003;69992;60.170;24.692;2023-06-26T08:54:58;14;14;
80639;PMS5003;69992;60.170;24.692;2023-06-26T08:57:22;20;16;
80639;PMS5003;69992;60.170;24.692;2023-06-26T08:59:47;15;15;
80639;PMS5003;69992;60.170;24.692;2023-06-26T09:02:12;14;14;
80639;PMS5003;69992;60.170;24.692;2023-06-26T09:04:38;11;11;
80639;PMS5003;69992;60.170;24.692;2023-06-26T09:07:04;14;14;
80639;PMS5003;69992;60.170;24.692;2023-06-26T09:09:29;12;11;
80639;PMS5003;69992;60.170;24.692;2023-06-26T09:11:54;11;11;
80639;PMS5003;69992;60.170;24.692;2023-06-26T09:14:19;13;12;
80639;PMS5003;69992;60.170;24.692;2023-06-26T09:16:45;11;11;
80639;PMS5003;69992;60.170;24.692;2023-06-26T09:19:10;10;10;
80639;PMS5003;69992;60.170;24.692;2023-06-26T09:21:35;10;10;
80639;PMS5003;69992;60.170;24.692;2023-06-26T09:24:01;13;13;
80639;PMS5003;69992;60.170;24.692;2023-06-26T09:26:26;11;11;
80639;PMS5003;69992;60.170;24.692;2023-06-26T09:28:52;14;14;
80639;PMS5003;69992;60.170;24.692;2023-06-26T09:31:17;12;12;
80639;PMS5003;69992;60.170;24.692;2023-06-26T09:33:42;14;14;
80639;PMS5003;69992;60.170;24.692;2023-06-26T09:36:08;14;14;
80639;PMS5003;69992;60.170;24.692;2023-06-26T09:38:34;16;15;
80639;PMS5003;69992;60.170;24.692;2023-06-26T09:40:59;14;14;
80639;PMS5003;69992;60.170;24.692;2023-06-26T09:43:24;17;17;
80639;PMS5003;69992;60.170;24.692;2023-06-26T09:45:50;13;13;
80639;PMS5003;69992;60.170;24.692;2023-06-26T09:48:15;16;16;
80639;PMS5003;69992;60.170;24.692;2023-06-26T09:50:41;13;13;
80639;PMS5003;69992;60.170;24.692;2023-06-26T09:53:07;16;15;
80639;PMS5003;69992;60.170;24.692;2023-06-26T09:55:33;14;14;
80639;PMS5003;69992;60.170;24.692;2023-06-26T09:57:57;14;14;
80639;PMS5003;69992;60.170;24.692;2023-06-26T10:00:22;16;13;
80639;PMS5003;69992;60.170;24.692;2023-06-26T10:02:48;12;12;
80639;PMS5003;69992;60.170;24.692;2023-06-26T10:05:13;12;12;
80639;PMS5003;69992;60.170;24.692;2023-06-26T10:07:38;14;13;
80639;PMS5003;69992;60.170;24.692;2023-06-26T10:10:03;14;14;
80639;PMS5003;69992;60.170;24.692;2023-06-26T10:12:30;18;14;
80639;PMS5003;69992;60.170;24.692;2023-06-26T10:14:56;14;14;
80639;PMS5003;69992;60.170;24.692;2023-06-26T10:17:20;15;14;
80639;PMS5003;69992;60.170;24.692;2023-06-26T10:19:45;12;12;
80639;PMS5003;69992;60.170;24.692;2023-06-26T10:22:10;18;18;
80639;PMS5003;69992;60.170;24.692;2023-06-26T10:24:35;18;18;
80639;PMS5003;69992;60.170;24.692;2023-06-26T10:27:02;16;16;
80639;PMS5003;69992;60.170;24.692;2023-06-26T10:29:26;18;17;
80639;PMS5003;69992;60.170;24.692;2023-06-26T10:31:52;16;16;
80639;PMS5003;69992;60.170;24.692;2023-06-26T10:34:16;18;18;
80639;PMS5003;69992;60.170;24.692;2023-06-26T10:36:42;18;18;
80639;PMS5003;69992;60.170;24.692;2023-06-26T10:39:07;16;16;
80639;PMS5003;69992;60.170;24.692;2023-06-26T10:41:36;14;14;
80639;PMS5003;69992;60.170;24.692;2023-06-26T10:46:22;16;16;
80639;PMS5003;69992;60.170;24.692;2023-06-26T10:51:13;15;15;
80639;PMS5003;69992;60.170;24.692;2023-06-26T10:53:38;14;14;
80639;PMS5003;69992;60.170;24.692;2023-06-26T10:56:04;14;14;
80639;PMS5003;69992;60.170;24.692;2023-06-26T10:58:30;15;15;
80639;PMS5003;69992;60.170;24.692;2023-06-26T11:03:23;14;14;
80639;PMS5003;69992;60.170;24.692;2023-06-26T11:05:45;12;12;
80639;PMS5003;69992;60.170;24.692;2023-06-26T11:08:10;13;13;
80639;PMS5003;69992;60.170;24.692;2023-06-26T11:13:01;13;13;
80639;PMS5003;69992;60.170;24.692;2023-06-26T11:15:26;13;13;
80639;PMS5003;69992;60.170;24.692;2023-06-26T11:17:52;14;13;
80639;PMS5003;69992;60.170;24.692;2023-06-26T11:20:17;15;15;
80639;PMS5003;69992;60.170;24.692;2023-06-26T11:22:43;16;16;
80639;PMS5003;69992;60.170;24.692;2023-06-26T11:25:09;15;15;
80639;PMS5003;69992;60.170;24.692;2023-06-26T11:27:37;13;13;
80639;PMS5003;69992;60.170;24.692;2023-06-26T11:29:59;13;13;
80639;PMS5003;69992;60.170;24.692;2023-06-26T11:32:26;13;13;
80639;PMS5003;69992;60.170;24.692;2023-06-26T11:34:50;13;13;
80639;PMS5003;69992;60.170;24.692;2023-06-26T11:37:16;12;12;
80639;PMS5003;69992;60.170;24.692;2023-06-26T11:39:40;13;13;
80639;PMS5003;69992;60.170;24.692;2023-06-26T11:42:06;12;12;
80639;PMS5003;69992;60.170;24.692;2023-06-26T11:44:31;10;9;
80639;PMS5003;69992;60.170;24.692;2023-06-26T11:46:57;14;13;
80639;PMS5003;69992;60.170;24.692;2023-06-26T11:49:22;15;14;
80639;PMS5003;69992;60.170;24.692;2023-06-26T11:51:47;12;11;
80639;PMS5003;69992;60.170;24.692;2023-06-26T11:54:13;12;12;
80639;PMS5003;69992;60.170;24.692;2023-06-26T11:56:38;12;12;
80639;PMS5003;69992;60.170;24.692;2023-06-26T11:59:04;12;12;
80639;PMS5003;69992;60.170;24.692;2023-06-26T12:01:31;14;14;
80639;PMS5003;69992;60.170;24.692;2023-06-26T12:04:01;13;13;
80639;PMS5003;69992;60.170;24.692;2023-06-26T12:06:19;10;9;
80639;PMS5003;69992;60.170;24.692;2023-06-26T12:08:45;13;13;
80639;PMS5003;69992;60.170;24.692;2023-06-26T12:11:12;12;12;
80639;PMS5003;69992;60.170;24.692;2023-06-26T12:13:36;11;11;
80639;PMS5003;69992;60.170;24.692;2023-06-26T12:16:01;9;9;
80639;PMS5003;69992;60.170;24.692;2023-06-26T12:20:52;11;11;
80639;PMS5003;69992;60.170;24.692;2023-06-26T12:23:17;10;10;
80639;PMS5003;69992;60.170;24.692;2023-06-26T12:25:42;9;9;
80639;PMS5003;69992;60.170;24.692;2023-06-26T12:30:33;11;11;
80639;PMS5003;69992;60.170;24.692;2023-06-26T12:32:58;12;11;
80639;PMS5003;69992;60.170;24.692;2023-06-26T12:35:23;11;11;
80639;PMS5003;69992;60.170;24.692;2023-06-26T12:37:49;9;9;
80639;PMS5003;69992;60.170;24.692;2023-06-26T12:40:17;8;8;
80639;PMS5003;69992;60.170;24.692;2023-06-26T12:42:39;10;10;
80639;PMS5003;69992;60.170;24.692;2023-06-26T12:47:30;10;10;
80639;PMS5003;69992;60.170;24.692;2023-06-26T12:49:55;9;9;
80639;PMS5003;69992;60.170;24.692;2023-06-26T12:52:20;7;7;
80639;PMS5003;69992;60.170;24.692;2023-06-26T12:54:46;6;6;
80639;PMS5003;69992;60.170;24.692;2023-06-26T12:57:11;9;9;
80639;PMS5003;69992;60.170;24.692;2023-06-26T12:59:36;8;8;
80639;PMS5003;69992;60.170;24.692;2023-06-26T13:02:01;7;7;
80639;PMS5003;69992;60.170;24.692;2023-06-26T13:04:27;8;8;
80639;PMS5003;69992;60.170;24.692;2023-06-26T13:06:52;9;9;
80639;PMS5003;69992;60.170;24.692;2023-06-26T13:09:17;6;6;
80639;PMS5003;69992;60.170;24.692;2023-06-26T13:11:43;8;8;
80639;PMS5003;69992;60.170;24.692;2023-06-26T13:14:08;7;7;
80639;PMS5003;69992;60.170;24.692;2023-06-26T13:16:33;16;16;
80639;PMS5003;69992;60.170;24.692;2023-06-26T13:18:59;10;10;
80639;PMS5003;69992;60.170;24.692;2023-06-26T13:21:24;6;6;
80639;PMS5003;69992;60.170;24.692;2023-06-26T13:23:49;8;8;
80639;PMS5003;69992;60.170;24.692;2023-06-26T13:26:14;8;8;
80639;PMS5003;69992;60.170;24.692;2023-06-26T13:28:40;7;7;
80639;PMS5003;69992;60.170;24.692;2023-06-26T13:31:05;9;9;
80639;PMS5003;69992;60.170;24.692;2023-06-26T13:33:30;6;6;
80639;PMS5003;69992;60.170;24.692;2023-06-26T13:35:56;7;7;
80639;PMS5003;69992;60.170;24.692;2023-06-26T13:38:21;6;6;
80639;PMS5003;69992;60.170;24.692;2023-06-26T13:40:46;6;6;
80639;PMS5003;69992;60.170;24.692;2023-06-26T13:43:11;6;6;
80639;PMS5003;69992;60.170;24.692;2023-06-26T13:45:37;5;5;
80639;PMS5003;69992;60.170;24.692;2023-06-26T13:48:02;6;6;
80639;PMS5003;69992;60.170;24.692;2023-06-26T13:50:28;5;5;
80639;PMS5003;69992;60.170;24.692;2023-06-26T13:52:53;7;7;
80639;PMS5003;69992;60.170;24.692;2023-06-26T13:55:18;7;7;
80639;PMS5003;69992;60.170;24.692;2023-06-26T13:57:43;6;6;
80639;PMS5003;69992;60.170;24.692;2023-06-26T14:00:09;6;6;
80639;PMS5003;69992;60.170;24.692;2023-06-26T14:02:34;8;8;
80639;PMS5003;69992;60.170;24.692;2023-06-26T14:04:59;5;5;
80639;PMS5003;69992;60.170;24.692;2023-06-26T14:07:24;7;7;
80639;PMS5003;69992;60.170;24.692;2023-06-26T14:09:50;6;6;
80639;PMS5003;69992;60.170;24.692;2023-06-26T14:12:15;6;6;
80639;PMS5003;69992;60.170;24.692;2023-06-26T14:14:40;5;5;
80639;PMS5003;69992;60.170;24.692;2023-06-26T14:17:06;5;5;
80639;PMS5003;69992;60.170;24.692;2023-06-26T14:19:31;6;6;
80639;PMS5003;69992;60.170;24.692;2023-06-26T14:21:56;5;5;
80639;PMS5003;69992;60.170;24.692;2023-06-26T14:24:21;5;5;
80639;PMS5003;69992;60.170;24.692;2023-06-26T14:26:47;5;5;
80639;PMS5003;69992;60.170;24.692;2023-06-26T14:29:12;7;7;
80639;PMS5003;69992;60.170;24.692;2023-06-26T14:31:37;6;6;
80639;PMS5003;69992;60.170;24.692;2023-06-26T14:34:03;6;5;
80639;PMS5003;69992;60.170;24.692;2023-06-26T14:36:28;6;6;
80639;PMS5003;69992;60.170;24.692;2023-06-26T14:38:53;5;5;
80639;PMS5003;69992;60.170;24.692;2023-06-26T14:41:19;5;5;
80639;PMS5003;69992;60.170;24.692;2023-06-26T14:43:44;5;5;
80639;PMS5003;69992;60.170;24.692;2023-06-26T14:46:09;5;4;
80639;PMS5003;69992;60.170;24.692;2023-06-26T14:48:34;6;6;
80639;PMS5003;69992;60.170;24.692;2023-06-26T14:51:00;7;7;
80639;PMS5003;69992;60.170;24.692;2023-06-26T14:53:25;6;6;
80639;PMS5003;69992;60.170;24.692;2023-06-26T14:55:50;5;5;
80639;PMS5003;69992;60.170;24.692;2023-06-26T14:58:16;7;7;
80639;PMS5003;69992;60.170;24.692;2023-06-26T15:00:41;6;6;
80639;PMS5003;69992;60.170;24.692;2023-06-26T15:03:06;7;7;
80639;PMS5003;69992;60.170;24.692;2023-06-26T15:05:31;6;6;
80639;PMS5003;69992;60.170;24.692;2023-06-26T15:07:57;6;6;
80639;PMS5003;69992;60.170;24.692;2023-06-26T15:10:22;5;5;
80639;PMS5003;69992;60.170;24.692;2023-06-26T15:12:47;6;6;
80639;PMS5003;69992;60.170;24.692;2023-06-26T15:15:12;6;6;
80639;PMS5003;69992;60.170;24.692;2023-06-26T15:17:38;6;6;
80639;PMS5003;69992;60.170;24.692;2023-06-26T15:20:03;4;4;
80639;PMS5003;69992;60.170;24.692;2023-06-26T15:22:28;7;6;
80639;PMS5003;69992;60.170;24.692;2023-06-26T15:24:54;7;7;
80639;PMS5003;69992;60.170;24.692;2023-06-26T15:27:19;4;4;
80639;PMS5003;69992;60.170;24.692;2023-06-26T15:29:44;6;6;
80639;PMS5003;69992;60.170;24.692;2023-06-26T15:32:09;5;5;
80639;PMS5003;69992;60.170;24.692;2023-06-26T15:34:35;6;6;
80639;PMS5003;69992;60.170;24.692;2023-06-26T15:37:00;5;5;
80639;PMS5003;69992;60.170;24.692;2023-06-26T15:39:25;6;6;
80639;PMS5003;69992;60.170;24.692;2023-06-26T15:41:51;7;7;
80639;PMS5003;69992;60.170;24.692;2023-06-26T15:44:16;6;5;
80639;PMS5003;69992;60.170;24.692;2023-06-26T15:46:41;6;5;
80639;PMS5003;69992;60.170;24.692;2023-06-26T15:49:07;5;5;
80639;PMS5003;69992;60.170;24.692;2023-06-26T15:51:32;5;5;
80639;PMS5003;69992;60.170;24.692;2023-06-26T15:53:57;5;5;
80639;PMS5003;69992;60.170;24.692;2023-06-26T15:56:22;6;6;
80639;PMS5003;69992;60.170;24.692;2023-06-26T15:58:48;6;6;
80639;PMS5003;69992;60.170;24.692;2023-06-26T16:01:13;6;6;
80639;PMS5003;69992;60.170;24.692;2023-06-26T16:03:39;6;6;
80639;PMS5003;69992;60.170;24.692;2023-06-26T16:06:04;6;6;
80639;PMS5003;69992;60.170;24.692;2023-06-26T16:08:29;5;5;
80639;PMS5003;69992;60.170;24.692;2023-06-26T16:10:54;7;7;
80639;PMS5003;69992;60.170;24.692;2023-06-26T16:13:20;8;8;